^^
Station Historical Data
Daily Summary for October 21, 2017 Units:  English    Metric   Both
« Previous Day
Next Day »
Daily Weekly Monthly Yearly Custom
  High: Low: Average:
Temperature: 77.9 °F 49.5 °F 61.8 °F
Dew Point: 50.3 °F 40.2 °F 44.4 °F
Humidity: 86% 26% 56%
Wind Speed: 5.0mph 0.0mph 0.4mph
Wind Gust: 7.0mph - -
Wind- - SSW
Pressure: 30.36 in 30.23 in -
Precipitation: 0.00 in    
Historical Graphs
 
 
Tabular Data for October 21, 2017
Time Temperature Dew Point Pressure Wind Wind Speed Wind Gust Humidity Rainfall Rate (Hourly) Conditions
00:00 57.0 °F 42.4 °F 30.23 in Calm   1.0 mph 58% 0.00 in CLR
00:10 54.8 °F 42.8 °F 30.23 in Calm   1.0 mph 64% 0.00 in CLR
00:20 54.7 °F 42.8 °F 30.23 in Calm   1.0 mph 64% 0.00 in CLR
00:30 53.9 °F 42.8 °F 30.23 in Calm     66% 0.00 in CLR
00:40 53.0 °F 42.4 °F 30.23 in Calm     67% 0.00 in CLR
00:50 52.9 °F 42.2 °F 30.23 in Calm     67% 0.00 in CLR
01:00 52.8 °F 42.5 °F 30.23 in Calm     68% 0.00 in CLR
01:10 53.7 °F 42.2 °F 30.23 in Calm   1.0 mph 65% 0.00 in CLR
01:20 56.2 °F 41.6 °F 30.23 in Calm   1.0 mph 58% 0.00 in CLR
01:30 55.9 °F 42.2 °F 30.24 in Calm     60% 0.00 in CLR
01:40 54.2 °F 42.3 °F 30.24 in Calm     64% 0.00 in CLR
01:50 54.1 °F 42.2 °F 30.24 in Calm     64% 0.00 in CLR
02:10 52.7 °F 41.3 °F 30.25 in Calm     65% 0.00 in CLR
02:20 52.1 °F 41.5 °F 30.25 in Calm     67% 0.00 in CLR
02:30 51.3 °F 41.8 °F 30.26 in Calm     70% 0.00 in CLR
02:40 51.4 °F 42.3 °F 30.26 in Calm     71% 0.00 in CLR
02:50 51.4 °F 42.7 °F 30.26 in Calm     72% 0.00 in CLR
03:00 52.4 °F 44.0 °F 30.26 in Calm     73% 0.00 in CLR
03:10 53.3 °F 43.0 °F 30.26 in Calm     68% 0.00 in CLR
03:20 52.0 °F 42.2 °F 30.26 in Calm     69% 0.00 in CLR
03:30 50.9 °F 42.2 °F 30.27 in Calm     72% 0.00 in CLR
03:40 50.3 °F 41.3 °F 30.27 in Calm     71% 0.00 in CLR
03:50 50.6 °F 41.2 °F 30.27 in Calm     70% 0.00 in CLR
04:00 49.8 °F 40.8 °F 30.27 in Calm     71% 0.00 in CLR
04:10 50.1 °F 41.1 °F 30.27 in Calm     71% 0.00 in CLR
04:20 51.6 °F 41.4 °F 30.27 in Calm     68% 0.00 in CLR
04:30 50.8 °F 41.3 °F 30.28 in Calm     70% 0.00 in CLR
04:40 51.3 °F 42.2 °F 30.28 in Calm     71% 0.00 in CLR
04:49 50.9 °F 42.9 °F 30.28 in Calm     74% 0.00 in CLR
04:59 51.1 °F 43.8 °F 30.28 in Calm     76% 0.00 in CLR
05:09 51.0 °F 43.7 °F 30.28 in Calm     76% 0.00 in CLR
05:20 51.1 °F 44.1 °F 30.28 in Calm   1.0 mph 77% 0.00 in CLR
05:30 50.7 °F 45.4 °F 30.28 in Calm     82% 0.00 in CLR
05:40 50.2 °F 45.5 °F 30.28 in Calm     84% 0.00 in CLR
05:50 50.7 °F 46.6 °F 30.28 in Calm     86% 0.00 in CLR
06:00 51.2 °F 46.8 °F 30.29 in Calm     85% 0.00 in CLR
06:10 50.8 °F 46.8 °F 30.29 in Calm     86% 0.00 in CLR
06:20 50.4 °F 46.4 °F 30.29 in Calm     86% 0.00 in CLR
06:30 50.4 °F 46.4 °F 30.29 in Calm     86% 0.00 in CLR
06:40 50.7 °F 46.7 °F 30.30 in Calm     86% 0.00 in CLR
06:50 50.4 °F 46.4 °F 30.30 in Calm     86% 0.00 in CLR
07:00 50.3 °F 46.3 °F 30.30 in Calm     86% 0.00 in CLR
07:10 50.3 °F 46.3 °F 30.30 in Calm     86% 0.00 in CLR
07:20 50.0 °F 46.0 °F 30.31 in Calm     86% 0.00 in CLR
07:29 50.3 °F 45.6 °F 30.31 in Calm     84% 0.00 in CLR
07:40 50.2 °F 45.2 °F 30.32 in Calm     83% 0.00 in CLR
07:50 49.9 °F 44.7 °F 30.32 in Calm     82% 0.00 in CLR
08:00 49.7 °F 44.4 °F 30.33 in Calm     82% 0.00 in CLR
08:10 49.5 °F 44.6 °F 30.33 in Calm     83% 0.00 in CLR
08:20 49.7 °F 44.4 °F 30.34 in Calm     82% 0.00 in CLR
08:30 49.6 °F 44.0 °F 30.34 in Calm     81% 0.00 in CLR
08:40 50.6 °F 43.7 °F 30.34 in Calm     77% 0.00 in CLR
08:50 51.2 °F 43.5 °F 30.34 in Calm     75% 0.00 in CLR
09:00 50.9 °F 43.3 °F 30.35 in Calm     75% 0.00 in CLR
09:10 53.4 °F 43.9 °F 30.35 in Calm   1.0 mph 70% 0.00 in CLR
09:20 55.4 °F 44.6 °F 30.35 in Calm     67% 0.00 in CLR
09:29 57.0 °F 43.7 °F 30.35 in Calm     61% 0.00 in CLR
09:40 59.8 °F 42.6 °F 30.35 in Calm     53% 0.00 in CLR
09:50 62.0 °F 43.6 °F 30.35 in Calm     51% 0.00 in CLR
09:59 63.4 °F 47.5 °F 30.35 in Calm   1.0 mph 56% 0.00 in CLR
10:10 64.1 °F 46.1 °F 30.35 in Calm     52% 0.00 in CLR
10:20 65.6 °F 47.0 °F 30.35 in Calm     51% 0.00 in CLR
10:30 66.0 °F 47.9 °F 30.35 in Calm   2.0 mph 52% 0.00 in CLR
10:40 66.4 °F 47.2 °F 30.35 in Calm   2.0 mph 50% 0.00 in CLR
10:50 65.9 °F 43.4 °F 30.35 in Calm   1.0 mph 44% 0.00 in CLR
11:00 67.5 °F 47.1 °F 30.35 in Calm   1.0 mph 48% 0.00 in CLR
11:10 68.7 °F 50.3 °F 30.35 in Calm   2.0 mph 52% 0.00 in CLR
11:20 69.6 °F 48.5 °F 30.35 in South 1.0 mph 2.0 mph 47% 0.00 in CLR
11:30 70.0 °F 47.0 °F 30.35 in Calm   3.0 mph 44% 0.00 in CLR
11:40 69.8 °F 46.9 °F 30.35 in SW 1.0 mph 4.0 mph 44% 0.00 in CLR
11:49 69.0 °F 45.6 °F 30.35 in WSW 2.0 mph 6.0 mph 43% 0.00 in CLR
11:59 70.4 °F 46.8 °F 30.34 in South 1.0 mph 7.0 mph 43% 0.00 in CLR
12:10 70.6 °F 45.1 °F 30.34 in SW 2.0 mph 5.0 mph 40% 0.00 in CLR
12:20 71.3 °F 46.4 °F 30.34 in Calm   4.0 mph 41% 0.00 in CLR
12:30 71.3 °F 46.4 °F 30.34 in WSW 1.0 mph 5.0 mph 41% 0.00 in CLR
12:40 72.6 °F 45.5 °F 30.34 in SW 1.0 mph 6.0 mph 38% 0.00 in CLR
12:50 72.9 °F 46.5 °F 30.33 in SW 1.0 mph 4.0 mph 39% 0.00 in CLR
13:00 73.2 °F 45.4 °F 30.33 in South 1.0 mph 4.0 mph 37% 0.00 in CLR
13:10 73.4 °F 44.8 °F 30.33 in SW 1.0 mph 4.0 mph 36% 0.00 in CLR
13:20 73.9 °F 46.0 °F 30.32 in SW 1.0 mph 3.0 mph 37% 0.00 in CLR
13:30 74.3 °F 45.6 °F 30.32 in WSW 1.0 mph 4.0 mph 36% 0.00 in CLR
13:40 75.3 °F 46.5 °F 30.32 in SSW 3.0 mph 6.0 mph 36% 0.00 in CLR
13:50 75.4 °F 45.8 °F 30.31 in SSW 3.0 mph 7.0 mph 35% 0.00 in CLR
13:59 75.2 °F 46.4 °F 30.31 in SW 1.0 mph 7.0 mph 36% 0.00 in CLR
14:10 75.4 °F 45.8 °F 30.31 in SW 2.0 mph 5.0 mph 35% 0.00 in CLR
14:20 75.6 °F 46.7 °F 30.31 in SW 1.0 mph 5.0 mph 36% 0.00 in CLR
14:30 76.0 °F 44.8 °F 30.30 in SSW 2.0 mph 7.0 mph 33% 0.00 in CLR
14:40 76.4 °F 45.1 °F 30.30 in South 2.0 mph 6.0 mph 33% 0.00 in CLR
14:49 76.8 °F 43.8 °F 30.30 in South 2.0 mph 6.0 mph 31% 0.00 in CLR
15:00 77.0 °F 42.3 °F 30.30 in WSW 2.0 mph 7.0 mph 29% 0.00 in CLR
15:10 77.2 °F 41.6 °F 30.30 in SSW 3.0 mph 5.0 mph 28% 0.00 in CLR
15:20 77.3 °F 40.7 °F 30.30 in South 5.0 mph 7.0 mph 27% 0.00 in CLR
15:30 77.9 °F 40.2 °F 30.30 in South 2.0 mph 6.0 mph 26% 0.00 in CLR
15:40 77.3 °F 40.7 °F 30.30 in SW 2.0 mph 7.0 mph 27% 0.00 in CLR
16:00 77.3 °F 40.7 °F 30.30 in SW 2.0 mph 6.0 mph 27% 0.00 in CLR
16:10 77.7 °F 42.0 °F 30.30 in Calm   6.0 mph 28% 0.00 in CLR
16:20 77.6 °F 41.0 °F 30.31 in SSW 2.0 mph 6.0 mph 27% 0.00 in CLR
16:30 77.0 °F 41.4 °F 30.30 in SSW 1.0 mph 7.0 mph 28% 0.00 in CLR
16:40 76.9 °F 41.3 °F 30.30 in SSW 2.0 mph 6.0 mph 28% 0.00 in CLR
16:50 76.4 °F 42.7 °F 30.31 in SSW 1.0 mph 3.0 mph 30% 0.00 in CLR
17:00 76.1 °F 44.1 °F 30.31 in Calm   3.0 mph 32% 0.00 in CLR
17:10 76.0 °F 43.2 °F 30.31 in SSW 2.0 mph 4.0 mph 31% 0.00 in CLR
17:19 75.5 °F 44.4 °F 30.31 in Calm   3.0 mph 33% 0.00 in CLR
17:30 75.1 °F 44.0 °F 30.31 in Calm   1.0 mph 33% 0.00 in CLR
17:40 74.2 °F 44.8 °F 30.31 in Calm   2.0 mph 35% 0.00 in CLR
17:50 72.7 °F 44.2 °F 30.32 in Calm   2.0 mph 36% 0.00 in CLR
17:59 71.4 °F 44.5 °F 30.32 in Calm   2.0 mph 38% 0.00 in CLR
18:09 70.7 °F 43.8 °F 30.33 in South 1.0 mph 4.0 mph 38% 0.00 in CLR
18:30 68.8 °F 44.1 °F 30.33 in Calm   3.0 mph 41% 0.00 in CLR
18:40 67.9 °F 44.5 °F 30.33 in Calm   2.0 mph 43% 0.00 in CLR
18:50 67.0 °F 44.9 °F 30.34 in Calm   3.0 mph 45% 0.00 in CLR
19:00 66.8 °F 45.3 °F 30.34 in Calm   4.0 mph 46% 0.00 in CLR
19:10 66.4 °F 45.0 °F 30.34 in SSW 1.0 mph 6.0 mph 46% 0.00 in CLR
19:20 66.6 °F 45.2 °F 30.34 in South 2.0 mph 4.0 mph 46% 0.00 in CLR
19:30 66.7 °F 44.7 °F 30.34 in Calm   3.0 mph 45% 0.00 in CLR
19:40 66.8 °F 44.1 °F 30.34 in Calm   3.0 mph 44% 0.00 in CLR
19:50 66.6 °F 44.6 °F 30.34 in Calm   3.0 mph 45% 0.00 in CLR
19:59 66.3 °F 44.3 °F 30.34 in Calm   3.0 mph 45% 0.00 in CLR
20:10 65.5 °F 44.7 °F 30.35 in Calm     47% 0.00 in CLR
20:19 64.2 °F 44.6 °F 30.35 in Calm     49% 0.00 in CLR
20:30 63.2 °F 44.3 °F 30.35 in Calm   1.0 mph 50% 0.00 in CLR
20:40 63.1 °F 43.6 °F 30.35 in Calm   1.0 mph 49% 0.00 in CLR
20:49 63.2 °F 44.3 °F 30.35 in Calm   1.0 mph 50% 0.00 in CLR
21:00 62.3 °F 44.4 °F 30.36 in Calm   1.0 mph 52% 0.00 in CLR
21:10 61.8 °F 44.4 °F 30.36 in Calm     53% 0.00 in CLR
21:19 61.4 °F 44.1 °F 30.36 in Calm   1.0 mph 53% 0.00 in CLR
21:29 61.0 °F 43.7 °F 30.36 in Calm     53% 0.00 in CLR
21:40 60.0 °F 43.8 °F 30.36 in Calm     55% 0.00 in CLR
21:50 60.2 °F 44.0 °F 30.36 in Calm     55% 0.00 in CLR
22:00 60.6 °F 44.3 °F 30.36 in Calm     55% 0.00 in CLR
22:10 59.2 °F 44.4 °F 30.36 in Calm     58% 0.00 in CLR
22:20 58.9 °F 45.0 °F 30.36 in Calm     60% 0.00 in CLR
22:30 59.2 °F 45.3 °F 30.36 in Calm     60% 0.00 in CLR
22:39 59.7 °F 46.3 °F 30.36 in Calm     61% 0.00 in CLR
22:50 60.2 °F 46.7 °F 30.36 in Calm     61% 0.00 in CLR
23:00 60.0 °F 46.9 °F 30.36 in Calm     62% 0.00 in CLR
23:09 59.1 °F 46.5 °F 30.36 in Calm     63% 0.00 in CLR
23:20 58.2 °F 46.5 °F 30.36 in Calm     65% 0.00 in CLR
23:30 57.6 °F 47.1 °F 30.36 in Calm     68% 0.00 in CLR
23:39 58.0 °F 47.5 °F 30.36 in Calm     68% 0.00 in CLR
23:50 58.1 °F 47.6 °F 30.36 in Calm     68% 0.00 in CLR
23:59 57.5 °F 47.4 °F 30.36 in Calm     69% 0.00 in CLR
TarryTown NY Weather
Compliments of Weather Underground - 1.75 mb